sensor_id;sensor_type;location;lat;lon;timestamp;P1;durP1;ratioP1;P2;durP2;ratioP2
72676;SDS011;60755;51.374;10.662;2023-07-09T00:00:13;7.50;;;5.57;;
72676;SDS011;60755;51.374;10.662;2023-07-09T00:02:43;5.85;;;5.35;;
72676;SDS011;60755;51.374;10.662;2023-07-09T00:05:14;6.13;;;5.53;;
72676;SDS011;60755;51.374;10.662;2023-07-09T00:07:43;6.55;;;5.45;;
72676;SDS011;60755;51.374;10.662;2023-07-09T00:10:17;6.97;;;5.72;;
72676;SDS011;60755;51.374;10.662;2023-07-09T00:12:46;6.13;;;5.32;;
72676;SDS011;60755;51.374;10.662;2023-07-09T00:15:14;5.95;;;5.45;;
72676;SDS011;60755;51.374;10.662;2023-07-09T00:17:43;6.07;;;5.45;;
72676;SDS011;60755;51.374;10.662;2023-07-09T00:20:12;5.63;;;5.22;;
72676;SDS011;60755;51.374;10.662;2023-07-09T00:22:42;6.38;;;5.78;;
72676;SDS011;60755;51.374;10.662;2023-07-09T00:25:13;6.72;;;5.50;;
72676;SDS011;60755;51.374;10.662;2023-07-09T00:27:43;6.90;;;5.40;;
72676;SDS011;60755;51.374;10.662;2023-07-09T00:30:14;16.08;;;6.55;;
72676;SDS011;60755;51.374;10.662;2023-07-09T00:32:43;6.97;;;5.43;;
72676;SDS011;60755;51.374;10.662;2023-07-09T00:35:10;6.95;;;5.57;;
72676;SDS011;60755;51.374;10.662;2023-07-09T00:37:41;8.23;;;5.70;;
72676;SDS011;60755;51.374;10.662;2023-07-09T00:40:16;5.90;;;5.35;;
72676;SDS011;60755;51.374;10.662;2023-07-09T00:42:47;6.57;;;5.70;;
72676;SDS011;60755;51.374;10.662;2023-07-09T00:45:18;6.50;;;5.85;;
72676;SDS011;60755;51.374;10.662;2023-07-09T00:47:56;6.70;;;5.90;;
72676;SDS011;60755;51.374;10.662;2023-07-09T00:50:29;6.18;;;5.68;;
72676;SDS011;60755;51.374;10.662;2023-07-09T00:53:02;5.93;;;5.43;;
72676;SDS011;60755;51.374;10.662;2023-07-09T00:55:36;8.68;;;5.65;;
72676;SDS011;60755;51.374;10.662;2023-07-09T00:58:09;6.05;;;5.50;;
72676;SDS011;60755;51.374;10.662;2023-07-09T01:00:45;6.20;;;5.70;;
72676;SDS011;60755;51.374;10.662;2023-07-09T01:03:20;7.55;;;5.43;;
72676;SDS011;60755;51.374;10.662;2023-07-09T01:05:53;6.53;;;5.93;;
72676;SDS011;60755;51.374;10.662;2023-07-09T01:08:21;6.43;;;5.82;;
72676;SDS011;60755;51.374;10.662;2023-07-09T01:10:48;6.53;;;5.90;;
72676;SDS011;60755;51.374;10.662;2023-07-09T01:13:17;6.43;;;5.82;;
72676;SDS011;60755;51.374;10.662;2023-07-09T01:15:45;6.53;;;5.95;;
72676;SDS011;60755;51.374;10.662;2023-07-09T01:18:14;6.32;;;5.50;;
72676;SDS011;60755;51.374;10.662;2023-07-09T01:20:41;6.50;;;5.90;;
72676;SDS011;60755;51.374;10.662;2023-07-09T01:23:10;7.20;;;6.05;;
72676;SDS011;60755;51.374;10.662;2023-07-09T01:25:40;6.30;;;5.70;;
72676;SDS011;60755;51.374;10.662;2023-07-09T01:28:10;6.57;;;5.68;;
72676;SDS011;60755;51.374;10.662;2023-07-09T01:30:39;5.95;;;5.45;;
72676;SDS011;60755;51.374;10.662;2023-07-09T01:33:07;6.55;;;5.95;;
72676;SDS011;60755;51.374;10.662;2023-07-09T01:35:36;6.43;;;5.93;;
72676;SDS011;60755;51.374;10.662;2023-07-09T01:38:06;5.95;;;5.47;;
72676;SDS011;60755;51.374;10.662;2023-07-09T01:40:36;6.55;;;5.90;;
72676;SDS011;60755;51.374;10.662;2023-07-09T01:43:04;7.00;;;5.70;;
72676;SDS011;60755;51.374;10.662;2023-07-09T01:45:33;6.43;;;5.88;;
72676;SDS011;60755;51.374;10.662;2023-07-09T01:48:01;6.57;;;5.97;;
72676;SDS011;60755;51.374;10.662;2023-07-09T01:50:29;6.32;;;5.80;;
72676;SDS011;60755;51.374;10.662;2023-07-09T01:52:56;6.75;;;5.80;;
72676;SDS011;60755;51.374;10.662;2023-07-09T01:55:25;7.32;;;6.10;;
72676;SDS011;60755;51.374;10.662;2023-07-09T01:57:54;7.22;;;6.18;;
72676;SDS011;60755;51.374;10.662;2023-07-09T02:00:22;6.45;;;5.85;;
72676;SDS011;60755;51.374;10.662;2023-07-09T02:02:49;6.75;;;6.15;;
72676;SDS011;60755;51.374;10.662;2023-07-09T02:05:18;6.60;;;6.00;;
72676;SDS011;60755;51.374;10.662;2023-07-09T02:07:47;6.97;;;5.78;;
72676;SDS011;60755;51.374;10.662;2023-07-09T02:10:14;6.20;;;5.60;;
72676;SDS011;60755;51.374;10.662;2023-07-09T02:12:43;6.60;;;6.03;;
72676;SDS011;60755;51.374;10.662;2023-07-09T02:15:12;7.20;;;6.50;;
72676;SDS011;60755;51.374;10.662;2023-07-09T02:17:40;8.18;;;6.20;;
72676;SDS011;60755;51.374;10.662;2023-07-09T02:20:08;7.65;;;6.32;;
72676;SDS011;60755;51.374;10.662;2023-07-09T02:22:37;6.60;;;6.10;;
72676;SDS011;60755;51.374;10.662;2023-07-09T02:25:06;7.18;;;6.53;;
72676;SDS011;60755;51.374;10.662;2023-07-09T02:27:35;6.78;;;6.05;;
72676;SDS011;60755;51.374;10.662;2023-07-09T02:30:03;6.45;;;5.70;;
72676;SDS011;60755;51.374;10.662;2023-07-09T02:32:33;6.28;;;5.68;;
72676;SDS011;60755;51.374;10.662;2023-07-09T02:35:00;6.03;;;5.47;;
72676;SDS011;60755;51.374;10.662;2023-07-09T02:37:28;6.65;;;5.80;;
72676;SDS011;60755;51.374;10.662;2023-07-09T02:39:55;7.75;;;6.03;;
72676;SDS011;60755;51.374;10.662;2023-07-09T02:42:23;6.72;;;6.13;;
72676;SDS011;60755;51.374;10.662;2023-07-09T02:44:50;7.70;;;6.10;;
72676;SDS011;60755;51.374;10.662;2023-07-09T02:47:18;6.55;;;5.95;;
72676;SDS011;60755;51.374;10.662;2023-07-09T02:49:47;6.63;;;6.03;;
72676;SDS011;60755;51.374;10.662;2023-07-09T02:52:15;7.03;;;6.30;;
72676;SDS011;60755;51.374;10.662;2023-07-09T02:54:42;6.82;;;6.20;;
72676;SDS011;60755;51.374;10.662;2023-07-09T02:57:09;8.38;;;6.10;;
72676;SDS011;60755;51.374;10.662;2023-07-09T02:59:37;6.45;;;5.85;;
72676;SDS011;60755;51.374;10.662;2023-07-09T03:02:04;6.43;;;5.82;;
72676;SDS011;60755;51.374;10.662;2023-07-09T03:04:31;6.88;;;6.22;;
72676;SDS011;60755;51.374;10.662;2023-07-09T03:07:00;6.38;;;5.80;;
72676;SDS011;60755;51.374;10.662;2023-07-09T03:09:28;6.60;;;5.93;;
72676;SDS011;60755;51.374;10.662;2023-07-09T03:11:55;6.30;;;5.80;;
72676;SDS011;60755;51.374;10.662;2023-07-09T03:14:23;6.55;;;6.00;;
72676;SDS011;60755;51.374;10.662;2023-07-09T03:16:50;8.02;;;6.40;;
72676;SDS011;60755;51.374;10.662;2023-07-09T03:19:19;6.97;;;6.28;;
72676;SDS011;60755;51.374;10.662;2023-07-09T03:21:47;6.85;;;6.25;;
72676;SDS011;60755;51.374;10.662;2023-07-09T03:24:15;8.05;;;6.03;;
72676;SDS011;60755;51.374;10.662;2023-07-09T03:26:44;6.28;;;5.68;;
72676;SDS011;60755;51.374;10.662;2023-07-09T03:29:12;6.30;;;5.80;;
72676;SDS011;60755;51.374;10.662;2023-07-09T03:31:40;8.30;;;6.00;;
72676;SDS011;60755;51.374;10.662;2023-07-09T03:34:07;6.50;;;5.88;;
72676;SDS011;60755;51.374;10.662;2023-07-09T03:36:34;5.88;;;5.38;;
72676;SDS011;60755;51.374;10.662;2023-07-09T03:39:03;6.05;;;5.60;;
72676;SDS011;60755;51.374;10.662;2023-07-09T03:41:32;7.28;;;6.20;;
72676;SDS011;60755;51.374;10.662;2023-07-09T03:43:59;6.70;;;6.10;;
72676;SDS011;60755;51.374;10.662;2023-07-09T03:46:26;7.53;;;6.18;;
72676;SDS011;60755;51.374;10.662;2023-07-09T03:48:54;6.95;;;6.25;;
72676;SDS011;60755;51.374;10.662;2023-07-09T03:51:22;9.57;;;5.80;;
72676;SDS011;60755;51.374;10.662;2023-07-09T03:53:49;6.10;;;5.57;;
72676;SDS011;60755;51.374;10.662;2023-07-09T03:56:16;6.10;;;5.60;;
72676;SDS011;60755;51.374;10.662;2023-07-09T03:58:45;5.35;;;5.00;;
72676;SDS011;60755;51.374;10.662;2023-07-09T04:01:12;6.60;;;6.00;;
72676;SDS011;60755;51.374;10.662;2023-07-09T04:03:41;5.53;;;5.10;;
72676;SDS011;60755;51.374;10.662;2023-07-09T04:06:09;6.30;;;5.72;;
72676;SDS011;60755;51.374;10.662;2023-07-09T04:08:36;7.22;;;5.28;;
72676;SDS011;60755;51.374;10.662;2023-07-09T04:11:03;7.40;;;5.30;;
72676;SDS011;60755;51.374;10.662;2023-07-09T04:13:31;5.93;;;5.32;;
72676;SDS011;60755;51.374;10.662;2023-07-09T04:16:00;6.68;;;5.22;;
72676;SDS011;60755;51.374;10.662;2023-07-09T04:18:27;5.63;;;5.22;;
72676;SDS011;60755;51.374;10.662;2023-07-09T04:20:55;5.30;;;5.00;;
72676;SDS011;60755;51.374;10.662;2023-07-09T04:23:22;5.25;;;4.93;;
72676;SDS011;60755;51.374;10.662;2023-07-09T04:25:49;5.50;;;5.10;;
72676;SDS011;60755;51.374;10.662;2023-07-09T04:28:16;5.90;;;5.40;;
72676;SDS011;60755;51.374;10.662;2023-07-09T04:30:47;5.18;;;4.78;;
72676;SDS011;60755;51.374;10.662;2023-07-09T04:33:17;5.60;;;5.20;;
72676;SDS011;60755;51.374;10.662;2023-07-09T04:35:45;6.65;;;5.03;;
72676;SDS011;60755;51.374;10.662;2023-07-09T04:38:13;5.78;;;4.90;;
72676;SDS011;60755;51.374;10.662;2023-07-09T04:40:41;5.75;;;5.20;;
72676;SDS011;60755;51.374;10.662;2023-07-09T04:43:08;4.88;;;4.50;;
72676;SDS011;60755;51.374;10.662;2023-07-09T04:45:35;5.15;;;4.82;;
72676;SDS011;60755;51.374;10.662;2023-07-09T04:48:03;5.75;;;5.15;;
72676;SDS011;60755;51.374;10.662;2023-07-09T04:50:32;5.82;;;5.38;;
72676;SDS011;60755;51.374;10.662;2023-07-09T04:52:59;6.65;;;5.20;;
72676;SDS011;60755;51.374;10.662;2023-07-09T04:55:27;5.82;;;5.20;;
72676;SDS011;60755;51.374;10.662;2023-07-09T04:57:54;5.50;;;4.97;;
72676;SDS011;60755;51.374;10.662;2023-07-09T05:00:23;5.60;;;5.13;;
72676;SDS011;60755;51.374;10.662;2023-07-09T05:02:50;4.95;;;4.60;;
72676;SDS011;60755;51.374;10.662;2023-07-09T05:05:18;5.10;;;4.70;;
72676;SDS011;60755;51.374;10.662;2023-07-09T05:07:47;5.55;;;5.03;;
72676;SDS011;60755;51.374;10.662;2023-07-09T05:10:14;5.25;;;4.85;;
72676;SDS011;60755;51.374;10.662;2023-07-09T05:12:49;8.75;;;5.15;;
72676;SDS011;60755;51.374;10.662;2023-07-09T05:15:17;5.45;;;4.95;;
72676;SDS011;60755;51.374;10.662;2023-07-09T05:17:44;5.63;;;4.75;;
72676;SDS011;60755;51.374;10.662;2023-07-09T05:20:12;5.47;;;4.90;;
72676;SDS011;60755;51.374;10.662;2023-07-09T05:22:40;5.22;;;4.82;;
72676;SDS011;60755;51.374;10.662;2023-07-09T05:25:09;5.38;;;4.78;;
72676;SDS011;60755;51.374;10.662;2023-07-09T05:27:36;4.90;;;4.50;;
72676;SDS011;60755;51.374;10.662;2023-07-09T05:30:04;4.97;;;4.57;;
72676;SDS011;60755;51.374;10.662;2023-07-09T05:32:32;5.35;;;5.00;;
72676;SDS011;60755;51.374;10.662;2023-07-09T05:35:00;5.85;;;5.18;;
72676;SDS011;60755;51.374;10.662;2023-07-09T05:37:27;6.00;;;5.53;;
72676;SDS011;60755;51.374;10.662;2023-07-09T05:39:54;5.70;;;5.30;;
72676;SDS011;60755;51.374;10.662;2023-07-09T05:42:23;5.40;;;4.90;;
72676;SDS011;60755;51.374;10.662;2023-07-09T05:44:51;5.60;;;5.20;;
72676;SDS011;60755;51.374;10.662;2023-07-09T05:47:18;5.70;;;5.30;;
72676;SDS011;60755;51.374;10.662;2023-07-09T05:49:45;4.75;;;4.45;;
72676;SDS011;60755;51.374;10.662;2023-07-09T05:52:15;4.90;;;4.60;;
72676;SDS011;60755;51.374;10.662;2023-07-09T05:54:42;5.30;;;4.90;;
72676;SDS011;60755;51.374;10.662;2023-07-09T05:57:10;5.63;;;4.85;;
72676;SDS011;60755;51.374;10.662;2023-07-09T05:59:39;5.65;;;5.07;;
72676;SDS011;60755;51.374;10.662;2023-07-09T06:02:07;5.40;;;5.00;;
72676;SDS011;60755;51.374;10.662;2023-07-09T06:04:37;5.43;;;5.03;;
72676;SDS011;60755;51.374;10.662;2023-07-09T06:07:05;5.05;;;4.65;;
72676;SDS011;60755;51.374;10.662;2023-07-09T06:09:33;5.30;;;4.82;;
72676;SDS011;60755;51.374;10.662;2023-07-09T06:12:00;5.57;;;4.93;;
72676;SDS011;60755;51.374;10.662;2023-07-09T06:14:27;6.97;;;5.78;;
72676;SDS011;60755;51.374;10.662;2023-07-09T06:16:56;5.25;;;4.85;;
72676;SDS011;60755;51.374;10.662;2023-07-09T06:19:23;5.35;;;4.95;;
72676;SDS011;60755;51.374;10.662;2023-07-09T06:21:51;4.90;;;4.60;;
72676;SDS011;60755;51.374;10.662;2023-07-09T06:24:18;5.30;;;4.90;;
72676;SDS011;60755;51.374;10.662;2023-07-09T06:26:46;5.55;;;5.15;;
72676;SDS011;60755;51.374;10.662;2023-07-09T06:29:13;5.53;;;5.10;;
72676;SDS011;60755;51.374;10.662;2023-07-09T06:31:40;5.10;;;4.70;;
72676;SDS011;60755;51.374;10.662;2023-07-09T06:34:09;4.82;;;4.53;;
72676;SDS011;60755;51.374;10.662;2023-07-09T06:36:37;5.30;;;4.88;;
72676;SDS011;60755;51.374;10.662;2023-07-09T06:39:04;5.95;;;5.40;;
72676;SDS011;60755;51.374;10.662;2023-07-09T06:41:32;5.32;;;4.80;;
72676;SDS011;60755;51.374;10.662;2023-07-09T06:44:04;5.22;;;4.82;;
72676;SDS011;60755;51.374;10.662;2023-07-09T06:46:32;5.55;;;5.22;;
72676;SDS011;60755;51.374;10.662;2023-07-09T06:49:00;4.80;;;4.50;;
72676;SDS011;60755;51.374;10.662;2023-07-09T06:51:33;5.20;;;4.80;;
72676;SDS011;60755;51.374;10.662;2023-07-09T06:54:01;5.90;;;5.40;;
72676;SDS011;60755;51.374;10.662;2023-07-09T06:56:28;8.73;;;5.90;;
72676;SDS011;60755;51.374;10.662;2023-07-09T06:58:55;5.28;;;4.85;;
72676;SDS011;60755;51.374;10.662;2023-07-09T07:01:22;5.18;;;4.72;;
72676;SDS011;60755;51.374;10.662;2023-07-09T07:03:50;5.65;;;4.97;;
72676;SDS011;60755;51.374;10.662;2023-07-09T07:06:17;4.72;;;4.40;;
72676;SDS011;60755;51.374;10.662;2023-07-09T07:08:47;5.15;;;4.70;;
72676;SDS011;60755;51.374;10.662;2023-07-09T07:11:15;4.63;;;4.32;;
72676;SDS011;60755;51.374;10.662;2023-07-09T07:13:42;6.50;;;4.35;;
72676;SDS011;60755;51.374;10.662;2023-07-09T07:16:11;5.05;;;4.72;;
72676;SDS011;60755;51.374;10.662;2023-07-09T07:18:39;6.40;;;4.72;;
72676;SDS011;60755;51.374;10.662;2023-07-09T07:21:08;5.68;;;5.18;;
72676;SDS011;60755;51.374;10.662;2023-07-09T07:23:36;4.78;;;4.47;;
72676;SDS011;60755;51.374;10.662;2023-07-09T07:26:04;5.05;;;4.50;;
72676;SDS011;60755;51.374;10.662;2023-07-09T07:28:33;5.53;;;5.13;;
72676;SDS011;60755;51.374;10.662;2023-07-09T07:31:02;6.53;;;5.25;;
72676;SDS011;60755;51.374;10.662;2023-07-09T07:33:30;4.95;;;4.65;;
72676;SDS011;60755;51.374;10.662;2023-07-09T07:35:57;5.70;;;5.20;;
72676;SDS011;60755;51.374;10.662;2023-07-09T07:38:25;5.43;;;4.63;;
72676;SDS011;60755;51.374;10.662;2023-07-09T07:40:53;5.68;;;5.22;;
72676;SDS011;60755;51.374;10.662;2023-07-09T07:43:22;7.50;;;5.35;;
72676;SDS011;60755;51.374;10.662;2023-07-09T07:45:49;5.28;;;4.88;;
72676;SDS011;60755;51.374;10.662;2023-07-09T07:48:16;5.78;;;5.22;;
72676;SDS011;60755;51.374;10.662;2023-07-09T07:50:43;6.20;;;5.70;;
72676;SDS011;60755;51.374;10.662;2023-07-09T07:53:13;6.03;;;5.43;;
72676;SDS011;60755;51.374;10.662;2023-07-09T07:55:41;5.80;;;5.30;;
72676;SDS011;60755;51.374;10.662;2023-07-09T07:58:09;7.40;;;5.30;;
72676;SDS011;60755;51.374;10.662;2023-07-09T08:00:39;5.65;;;5.22;;
72676;SDS011;60755;51.374;10.662;2023-07-09T08:03:07;8.45;;;5.32;;
72676;SDS011;60755;51.374;10.662;2023-07-09T08:05:34;6.78;;;5.55;;
72676;SDS011;60755;51.374;10.662;2023-07-09T08:08:01;5.47;;;5.13;;
72676;SDS011;60755;51.374;10.662;2023-07-09T08:10:28;5.88;;;5.32;;
72676;SDS011;60755;51.374;10.662;2023-07-09T08:12:56;7.63;;;5.55;;
72676;SDS011;60755;51.374;10.662;2023-07-09T08:15:23;5.88;;;5.30;;
72676;SDS011;60755;51.374;10.662;2023-07-09T08:17:52;6.32;;;5.78;;
72676;SDS011;60755;51.374;10.662;2023-07-09T08:20:19;6.22;;;5.20;;
72676;SDS011;60755;51.374;10.662;2023-07-09T08:22:46;5.60;;;5.10;;
72676;SDS011;60755;51.374;10.662;2023-07-09T08:25:14;5.80;;;5.30;;
72676;SDS011;60755;51.374;10.662;2023-07-09T08:27:41;5.88;;;5.07;;
72676;SDS011;60755;51.374;10.662;2023-07-09T08:30:09;6.10;;;5.38;;
72676;SDS011;60755;51.374;10.662;2023-07-09T08:32:37;6.07;;;5.32;;
72676;SDS011;60755;51.374;10.662;2023-07-09T08:35:06;5.63;;;5.05;;
72676;SDS011;60755;51.374;10.662;2023-07-09T08:37:37;5.65;;;5.15;;
72676;SDS011;60755;51.374;10.662;2023-07-09T08:40:07;5.82;;;5.32;;
72676;SDS011;60755;51.374;10.662;2023-07-09T08:42:39;6.35;;;4.63;;
72676;SDS011;60755;51.374;10.662;2023-07-09T08:45:13;7.15;;;5.60;;
72676;SDS011;60755;51.374;10.662;2023-07-09T08:47:52;5.38;;;4.97;;
72676;SDS011;60755;51.374;10.662;2023-07-09T08:50:32;5.60;;;5.10;;
72676;SDS011;60755;51.374;10.662;2023-07-09T08:53:03;7.35;;;5.45;;
72676;SDS011;60755;51.374;10.662;2023-07-09T08:55:32;5.43;;;4.93;;
72676;SDS011;60755;51.374;10.662;2023-07-09T08:58:09;8.43;;;5.22;;
72676;SDS011;60755;51.374;10.662;2023-07-09T09:00:51;5.63;;;5.15;;
72676;SDS011;60755;51.374;10.662;2023-07-09T09:03:26;7.20;;;5.10;;
72676;SDS011;60755;51.374;10.662;2023-07-09T09:05:59;5.95;;;5.45;;
72676;SDS011;60755;51.374;10.662;2023-07-09T09:08:32;6.15;;;5.13;;
72676;SDS011;60755;51.374;10.662;2023-07-09T09:11:14;6.32;;;5.13;;
72676;SDS011;60755;51.374;10.662;2023-07-09T09:15:09;5.30;;;4.80;;
72676;SDS011;60755;51.374;10.662;2023-07-09T09:18:20;6.50;;;5.40;;
72676;SDS011;60755;51.374;10.662;2023-07-09T09:21:09;6.65;;;5.38;;
72676;SDS011;60755;51.374;10.662;2023-07-09T09:23:52;5.85;;;5.15;;
72676;SDS011;60755;51.374;10.662;2023-07-09T09:26:35;7.22;;;5.20;;
72676;SDS011;60755;51.374;10.662;2023-07-09T09:29:12;5.72;;;5.30;;
72676;SDS011;60755;51.374;10.662;2023-07-09T09:32:02;6.65;;;5.57;;
72676;SDS011;60755;51.374;10.662;2023-07-09T09:35:15;6.18;;;5.60;;
72676;SDS011;60755;51.374;10.662;2023-07-09T09:38:19;6.00;;;5.40;;
72676;SDS011;60755;51.374;10.662;2023-07-09T09:41:39;6.50;;;5.40;;
72676;SDS011;60755;51.374;10.662;2023-07-09T09:44:18;6.38;;;5.78;;
72676;SDS011;60755;51.374;10.662;2023-07-09T09:46:48;6.10;;;5.40;;
72676;SDS011;60755;51.374;10.662;2023-07-09T09:49:15;5.80;;;5.28;;
72676;SDS011;60755;51.374;10.662;2023-07-09T09:51:43;7.10;;;5.72;;
72676;SDS011;60755;51.374;10.662;2023-07-09T09:54:16;11.50;;;5.40;;
72676;SDS011;60755;51.374;10.662;2023-07-09T09:56:47;6.20;;;5.53;;
72676;SDS011;60755;51.374;10.662;2023-07-09T09:59:16;6.57;;;5.45;;
72676;SDS011;60755;51.374;10.662;2023-07-09T10:01:46;5.68;;;5.10;;
72676;SDS011;60755;51.374;10.662;2023-07-09T10:04:16;6.00;;;5.47;;
72676;SDS011;60755;51.374;10.662;2023-07-09T10:06:46;10.02;;;6.05;;
72676;SDS011;60755;51.374;10.662;2023-07-09T10:09:19;6.00;;;5.50;;
72676;SDS011;60755;51.374;10.662;2023-07-09T10:11:53;5.65;;;5.15;;
72676;SDS011;60755;51.374;10.662;2023-07-09T10:14:28;5.78;;;5.00;;
72676;SDS011;60755;51.374;10.662;2023-07-09T10:17:04;5.95;;;5.43;;
72676;SDS011;60755;51.374;10.662;2023-07-09T10:19:42;6.60;;;5.47;;
72676;SDS011;60755;51.374;10.662;2023-07-09T10:22:19;6.00;;;5.40;;
72676;SDS011;60755;51.374;10.662;2023-07-09T10:24:56;6.30;;;5.53;;
72676;SDS011;60755;51.374;10.662;2023-07-09T10:27:30;9.10;;;5.85;;
72676;SDS011;60755;51.374;10.662;2023-07-09T10:33:05;6.90;;;5.28;;
72676;SDS011;60755;51.374;10.662;2023-07-09T10:35:37;7.53;;;5.53;;
72676;SDS011;60755;51.374;10.662;2023-07-09T10:41:03;7.22;;;5.68;;
72676;SDS011;60755;51.374;10.662;2023-07-09T10:43:36;7.13;;;5.47;;
72676;SDS011;60755;51.374;10.662;2023-07-09T10:46:12;7.85;;;7.03;;
72676;SDS011;60755;51.374;10.662;2023-07-09T10:48:43;5.47;;;4.85;;
72676;SDS011;60755;51.374;10.662;2023-07-09T10:51:16;6.50;;;5.40;;
72676;SDS011;60755;51.374;10.662;2023-07-09T10:58:21;5.93;;;5.32;;
72676;SDS011;60755;51.374;10.662;2023-07-09T11:01:15;5.72;;;5.20;;
72676;SDS011;60755;51.374;10.662;2023-07-09T11:04:29;5.90;;;5.18;;
72676;SDS011;60755;51.374;10.662;2023-07-09T11:07:02;5.70;;;5.13;;
72676;SDS011;60755;51.374;10.662;2023-07-09T11:09:34;7.50;;;4.78;;
72676;SDS011;60755;51.374;10.662;2023-07-09T11:12:04;5.65;;;4.88;;
72676;SDS011;60755;51.374;10.662;2023-07-09T11:14:37;6.63;;;4.45;;
72676;SDS011;60755;51.374;10.662;2023-07-09T11:17:11;6.70;;;5.05;;
72676;SDS011;60755;51.374;10.662;2023-07-09T11:19:42;4.95;;;4.53;;
72676;SDS011;60755;51.374;10.662;2023-07-09T11:22:15;5.38;;;4.30;;
72676;SDS011;60755;51.374;10.662;2023-07-09T11:24:47;6.55;;;4.43;;
72676;SDS011;60755;51.374;10.662;2023-07-09T11:27:21;5.05;;;4.68;;
72676;SDS011;60755;51.374;10.662;2023-07-09T11:29:57;6.22;;;4.00;;
72676;SDS011;60755;51.374;10.662;2023-07-09T11:32:25;4.85;;;4.30;;
72676;SDS011;60755;51.374;10.662;2023-07-09T11:34:53;6.15;;;4.80;;
72676;SDS011;60755;51.374;10.662;2023-07-09T11:37:23;4.93;;;4.45;;
72676;SDS011;60755;51.374;10.662;2023-07-09T11:39:52;5.00;;;4.05;;
72676;SDS011;60755;51.374;10.662;2023-07-09T11:42:26;5.10;;;4.45;;
72676;SDS011;60755;51.374;10.662;2023-07-09T11:45:02;4.93;;;4.47;;
72676;SDS011;60755;51.374;10.662;2023-07-09T11:47:36;5.45;;;4.22;;
72676;SDS011;60755;51.374;10.662;2023-07-09T11:50:12;4.88;;;4.47;;
72676;SDS011;60755;51.374;10.662;2023-07-09T11:52:48;4.78;;;4.30;;
72676;SDS011;60755;51.374;10.662;2023-07-09T11:55:20;4.90;;;4.50;;
72676;SDS011;60755;51.374;10.662;2023-07-09T11:57:55;6.55;;;4.47;;
72676;SDS011;60755;51.374;10.662;2023-07-09T12:00:25;7.13;;;4.40;;
72676;SDS011;60755;51.374;10.662;2023-07-09T12:02:55;4.80;;;4.40;;
72676;SDS011;60755;51.374;10.662;2023-07-09T12:05:25;8.85;;;4.32;;
72676;SDS011;60755;51.374;10.662;2023-07-09T12:07:54;5.95;;;4.97;;
72676;SDS011;60755;51.374;10.662;2023-07-09T12:10:22;5.22;;;4.32;;
72676;SDS011;60755;51.374;10.662;2023-07-09T12:12:54;7.88;;;4.38;;
72676;SDS011;60755;51.374;10.662;2023-07-09T12:15:23;4.40;;;4.00;;
72676;SDS011;60755;51.374;10.662;2023-07-09T12:17:54;4.82;;;3.85;;
72676;SDS011;60755;51.374;10.662;2023-07-09T12:20:22;4.95;;;4.35;;
72676;SDS011;60755;51.374;10.662;2023-07-09T12:22:49;4.93;;;4.28;;
72676;SDS011;60755;51.374;10.662;2023-07-09T12:25:21;4.38;;;3.97;;
72676;SDS011;60755;51.374;10.662;2023-07-09T12:27:50;5.07;;;4.25;;
72676;SDS011;60755;51.374;10.662;2023-07-09T12:30:17;4.80;;;4.35;;
72676;SDS011;60755;51.374;10.662;2023-07-09T12:32:47;9.88;;;4.70;;
72676;SDS011;60755;51.374;10.662;2023-07-09T12:35:17;4.93;;;4.55;;
72676;SDS011;60755;51.374;10.662;2023-07-09T12:37:46;6.78;;;5.03;;
72676;SDS011;60755;51.374;10.662;2023-07-09T12:40:16;6.75;;;5.00;;
72676;SDS011;60755;51.374;10.662;2023-07-09T12:42:48;6.25;;;4.65;;
72676;SDS011;60755;51.374;10.662;2023-07-09T12:45:16;9.10;;;4.63;;
72676;SDS011;60755;51.374;10.662;2023-07-09T12:47:46;4.70;;;4.30;;
72676;SDS011;60755;51.374;10.662;2023-07-09T12:50:19;5.55;;;5.00;;
72676;SDS011;60755;51.374;10.662;2023-07-09T12:53:00;4.97;;;4.57;;
72676;SDS011;60755;51.374;10.662;2023-07-09T12:55:29;4.97;;;4.55;;
72676;SDS011;60755;51.374;10.662;2023-07-09T12:58:07;5.57;;;5.07;;
72676;SDS011;60755;51.374;10.662;2023-07-09T13:00:37;6.20;;;4.93;;
72676;SDS011;60755;51.374;10.662;2023-07-09T13:03:10;6.45;;;5.10;;
72676;SDS011;60755;51.374;10.662;2023-07-09T13:05:40;6.82;;;4.65;;
72676;SDS011;60755;51.374;10.662;2023-07-09T13:08:18;6.03;;;4.80;;
72676;SDS011;60755;51.374;10.662;2023-07-09T13:10:46;4.43;;;4.07;;
72676;SDS011;60755;51.374;10.662;2023-07-09T13:13:16;4.88;;;4.50;;
72676;SDS011;60755;51.374;10.662;2023-07-09T13:15:47;5.72;;;4.63;;
72676;SDS011;60755;51.374;10.662;2023-07-09T13:18:17;5.25;;;4.70;;
72676;SDS011;60755;51.374;10.662;2023-07-09T13:20:45;7.80;;;4.78;;
72676;SDS011;60755;51.374;10.662;2023-07-09T13:23:14;5.15;;;4.47;;
72676;SDS011;60755;51.374;10.662;2023-07-09T13:25:43;5.82;;;4.65;;
72676;SDS011;60755;51.374;10.662;2023-07-09T13:28:17;5.55;;;5.00;;
72676;SDS011;60755;51.374;10.662;2023-07-09T13:30:46;5.25;;;4.75;;
72676;SDS011;60755;51.374;10.662;2023-07-09T13:33:13;5.00;;;4.50;;
72676;SDS011;60755;51.374;10.662;2023-07-09T13:35:41;7.25;;;4.97;;
72676;SDS011;60755;51.374;10.662;2023-07-09T13:38:12;7.15;;;4.35;;
72676;SDS011;60755;51.374;10.662;2023-07-09T13:40:43;5.05;;;4.32;;
72676;SDS011;60755;51.374;10.662;2023-07-09T13:43:13;6.55;;;4.97;;
72676;SDS011;60755;51.374;10.662;2023-07-09T13:45:41;6.72;;;4.70;;
72676;SDS011;60755;51.374;10.662;2023-07-09T13:48:11;5.38;;;4.53;;
72676;SDS011;60755;51.374;10.662;2023-07-09T13:50:43;5.72;;;5.13;;
72676;SDS011;60755;51.374;10.662;2023-07-09T13:53:15;6.97;;;4.63;;
72676;SDS011;60755;51.374;10.662;2023-07-09T13:55:43;5.30;;;4.80;;
72676;SDS011;60755;51.374;10.662;2023-07-09T13:58:12;5.15;;;4.50;;
72676;SDS011;60755;51.374;10.662;2023-07-09T14:00:41;7.93;;;4.47;;
72676;SDS011;60755;51.374;10.662;2023-07-09T14:03:12;5.22;;;4.72;;
72676;SDS011;60755;51.374;10.662;2023-07-09T14:05:44;5.38;;;4.85;;
72676;SDS011;60755;51.374;10.662;2023-07-09T14:08:14;6.43;;;4.40;;
72676;SDS011;60755;51.374;10.662;2023-07-09T14:10:42;8.63;;;4.68;;
72676;SDS011;60755;51.374;10.662;2023-07-09T14:13:09;6.88;;;4.60;;
72676;SDS011;60755;51.374;10.662;2023-07-09T14:15:40;5.07;;;4.50;;
72676;SDS011;60755;51.374;10.662;2023-07-09T14:18:09;5.32;;;4.25;;
72676;SDS011;60755;51.374;10.662;2023-07-09T14:20:38;5.35;;;4.38;;
72676;SDS011;60755;51.374;10.662;2023-07-09T14:23:08;7.13;;;4.53;;
72676;SDS011;60755;51.374;10.662;2023-07-09T14:25:37;9.70;;;4.40;;
72676;SDS011;60755;51.374;10.662;2023-07-09T14:28:07;5.57;;;4.47;;
72676;SDS011;60755;51.374;10.662;2023-07-09T14:30:37;6.78;;;4.68;;
72676;SDS011;60755;51.374;10.662;2023-07-09T14:33:07;7.70;;;4.55;;
72676;SDS011;60755;51.374;10.662;2023-07-09T14:35:39;9.60;;;4.25;;
72676;SDS011;60755;51.374;10.662;2023-07-09T14:38:12;7.72;;;4.95;;
72676;SDS011;60755;51.374;10.662;2023-07-09T14:40:42;9.57;;;4.70;;
72676;SDS011;60755;51.374;10.662;2023-07-09T14:43:09;8.20;;;6.80;;
72676;SDS011;60755;51.374;10.662;2023-07-09T14:45:37;8.70;;;5.15;;
72676;SDS011;60755;51.374;10.662;2023-07-09T14:48:08;5.25;;;4.60;;
72676;SDS011;60755;51.374;10.662;2023-07-09T14:50:36;4.85;;;4.18;;
72676;SDS011;60755;51.374;10.662;2023-07-09T14:53:05;6.28;;;4.68;;
72676;SDS011;60755;51.374;10.662;2023-07-09T14:55:38;6.20;;;4.47;;
72676;SDS011;60755;51.374;10.662;2023-07-09T14:58:08;7.35;;;5.20;;
72676;SDS011;60755;51.374;10.662;2023-07-09T15:00:40;6.13;;;4.68;;
72676;SDS011;60755;51.374;10.662;2023-07-09T15:03:09;6.13;;;4.90;;